sensor_id;sensor_type;location;lat;lon;timestamp;P1;durP1;ratioP1;P2;durP2;ratioP2
37069;SDS011;22984;48.862;9.320;2022-11-02T00:01:18;12.50;;;5.65;;
37069;SDS011;22984;48.862;9.320;2022-11-02T00:03:45;13.80;;;5.05;;
37069;SDS011;22984;48.862;9.320;2022-11-02T00:06:12;11.50;;;4.50;;
37069;SDS011;22984;48.862;9.320;2022-11-02T00:08:38;15.63;;;4.15;;
37069;SDS011;22984;48.862;9.320;2022-11-02T00:11:04;8.25;;;3.47;;
37069;SDS011;22984;48.862;9.320;2022-11-02T00:13:30;7.90;;;2.75;;
37069;SDS011;22984;48.862;9.320;2022-11-02T00:15:56;8.02;;;3.70;;
37069;SDS011;22984;48.862;9.320;2022-11-02T00:18:22;12.93;;;6.60;;
37069;SDS011;22984;48.862;9.320;2022-11-02T00:20:48;16.42;;;6.78;;
37069;SDS011;22984;48.862;9.320;2022-11-02T00:23:14;8.93;;;4.23;;
37069;SDS011;22984;48.862;9.320;2022-11-02T00:25:41;10.40;;;4.60;;
37069;SDS011;22984;48.862;9.320;2022-11-02T00:28:08;6.82;;;3.65;;
37069;SDS011;22984;48.862;9.320;2022-11-02T00:30:34;15.57;;;4.60;;
37069;SDS011;22984;48.862;9.320;2022-11-02T00:33:00;12.00;;;5.03;;
37069;SDS011;22984;48.862;9.320;2022-11-02T00:35:26;14.82;;;4.38;;
37069;SDS011;22984;48.862;9.320;2022-11-02T00:37:52;12.98;;;5.10;;
37069;SDS011;22984;48.862;9.320;2022-11-02T00:40:18;13.37;;;4.47;;
37069;SDS011;22984;48.862;9.320;2022-11-02T00:42:44;11.95;;;4.03;;
37069;SDS011;22984;48.862;9.320;2022-11-02T00:45:10;12.88;;;4.00;;
37069;SDS011;22984;48.862;9.320;2022-11-02T00:47:36;8.83;;;3.53;;
37069;SDS011;22984;48.862;9.320;2022-11-02T00:50:03;8.60;;;3.58;;
37069;SDS011;22984;48.862;9.320;2022-11-02T00:52:29;7.60;;;3.25;;
37069;SDS011;22984;48.862;9.320;2022-11-02T00:54:55;6.38;;;2.88;;
37069;SDS011;22984;48.862;9.320;2022-11-02T00:57:21;9.55;;;3.40;;
37069;SDS011;22984;48.862;9.320;2022-11-02T00:59:47;8.07;;;2.95;;
37069;SDS011;22984;48.862;9.320;2022-11-02T01:02:13;8.57;;;2.78;;
37069;SDS011;22984;48.862;9.320;2022-11-02T01:04:40;11.50;;;3.40;;
37069;SDS011;22984;48.862;9.320;2022-11-02T01:07:06;3.67;;;2.47;;
37069;SDS011;22984;48.862;9.320;2022-11-02T01:09:32;7.70;;;2.83;;
37069;SDS011;22984;48.862;9.320;2022-11-02T01:11:58;8.75;;;2.95;;
37069;SDS011;22984;48.862;9.320;2022-11-02T01:14:24;10.25;;;3.30;;
37069;SDS011;22984;48.862;9.320;2022-11-02T01:16:50;7.00;;;2.75;;
37069;SDS011;22984;48.862;9.320;2022-11-02T01:19:16;8.13;;;2.80;;
37069;SDS011;22984;48.862;9.320;2022-11-02T01:21:43;7.43;;;2.57;;
37069;SDS011;22984;48.862;9.320;2022-11-02T01:24:09;9.60;;;2.40;;
37069;SDS011;22984;48.862;9.320;2022-11-02T01:26:35;9.20;;;2.47;;
37069;SDS011;22984;48.862;9.320;2022-11-02T01:29:01;8.10;;;2.27;;
37069;SDS011;22984;48.862;9.320;2022-11-02T01:31:27;7.13;;;2.40;;
37069;SDS011;22984;48.862;9.320;2022-11-02T01:33:53;6.55;;;2.72;;
37069;SDS011;22984;48.862;9.320;2022-11-02T01:36:19;8.73;;;2.40;;
37069;SDS011;22984;48.862;9.320;2022-11-02T01:38:45;10.68;;;2.38;;
37069;SDS011;22984;48.862;9.320;2022-11-02T01:41:12;11.35;;;2.78;;
37069;SDS011;22984;48.862;9.320;2022-11-02T01:43:42;8.65;;;2.30;;
37069;SDS011;22984;48.862;9.320;2022-11-02T01:51:12;4.22;;;1.92;;
37069;SDS011;22984;48.862;9.320;2022-11-02T01:53:41;6.65;;;2.25;;
37069;SDS011;22984;48.862;9.320;2022-11-02T01:56:08;7.30;;;1.80;;
37069;SDS011;22984;48.862;9.320;2022-11-02T01:58:36;7.53;;;2.40;;
37069;SDS011;22984;48.862;9.320;2022-11-02T02:01:02;12.18;;;2.30;;
37069;SDS011;22984;48.862;9.320;2022-11-02T02:03:29;13.63;;;2.17;;
37069;SDS011;22984;48.862;9.320;2022-11-02T02:05:58;6.77;;;1.77;;
37069;SDS011;22984;48.862;9.320;2022-11-02T02:08:25;8.15;;;2.55;;
37069;SDS011;22984;48.862;9.320;2022-11-02T02:10:56;8.98;;;2.13;;
37069;SDS011;22984;48.862;9.320;2022-11-02T02:13:22;6.95;;;1.92;;
37069;SDS011;22984;48.862;9.320;2022-11-02T02:18:17;6.13;;;1.93;;
37069;SDS011;22984;48.862;9.320;2022-11-02T02:28:47;8.30;;;2.00;;
37069;SDS011;22984;48.862;9.320;2022-11-02T02:31:18;8.60;;;2.30;;
37069;SDS011;22984;48.862;9.320;2022-11-02T02:36:15;4.82;;;2.00;;
37069;SDS011;22984;48.862;9.320;2022-11-02T02:38:55;6.30;;;2.50;;
37069;SDS011;22984;48.862;9.320;2022-11-02T02:41:24;8.48;;;2.20;;
37069;SDS011;22984;48.862;9.320;2022-11-02T02:43:54;4.95;;;2.08;;
37069;SDS011;22984;48.862;9.320;2022-11-02T02:49:21;7.35;;;2.38;;
37069;SDS011;22984;48.862;9.320;2022-11-02T02:51:49;4.75;;;1.85;;
37069;SDS011;22984;48.862;9.320;2022-11-02T02:54:18;4.13;;;2.15;;
37069;SDS011;22984;48.862;9.320;2022-11-02T02:56:52;8.63;;;2.60;;
37069;SDS011;22984;48.862;9.320;2022-11-02T02:59:20;5.93;;;2.17;;
37069;SDS011;22984;48.862;9.320;2022-11-02T03:01:47;6.50;;;2.22;;
37069;SDS011;22984;48.862;9.320;2022-11-02T03:04:14;10.20;;;2.30;;
37069;SDS011;22984;48.862;9.320;2022-11-02T03:06:40;3.67;;;2.00;;
37069;SDS011;22984;48.862;9.320;2022-11-02T03:09:18;5.20;;;2.03;;
37069;SDS011;22984;48.862;9.320;2022-11-02T03:12:08;4.43;;;1.70;;
37069;SDS011;22984;48.862;9.320;2022-11-02T03:17:41;8.23;;;1.73;;
37069;SDS011;22984;48.862;9.320;2022-11-02T03:20:14;7.40;;;1.83;;
37069;SDS011;22984;48.862;9.320;2022-11-02T03:25:28;6.37;;;1.90;;
37069;SDS011;22984;48.862;9.320;2022-11-02T03:28:32;6.72;;;2.00;;
37069;SDS011;22984;48.862;9.320;2022-11-02T03:30:59;9.77;;;1.90;;
37069;SDS011;22984;48.862;9.320;2022-11-02T03:33:36;7.88;;;2.67;;
37069;SDS011;22984;48.862;9.320;2022-11-02T03:36:08;3.92;;;1.90;;
37069;SDS011;22984;48.862;9.320;2022-11-02T03:41:21;6.78;;;1.77;;
37069;SDS011;22984;48.862;9.320;2022-11-02T03:43:47;10.95;;;1.75;;
37069;SDS011;22984;48.862;9.320;2022-11-02T03:46:15;8.35;;;1.98;;
37069;SDS011;22984;48.862;9.320;2022-11-02T03:48:46;6.55;;;2.55;;
37069;SDS011;22984;48.862;9.320;2022-11-02T03:51:14;4.40;;;1.73;;
37069;SDS011;22984;48.862;9.320;2022-11-02T03:56:12;7.30;;;2.30;;
37069;SDS011;22984;48.862;9.320;2022-11-02T03:58:39;8.45;;;1.98;;
37069;SDS011;22984;48.862;9.320;2022-11-02T04:01:05;7.90;;;1.93;;
37069;SDS011;22984;48.862;9.320;2022-11-02T04:03:36;3.83;;;1.67;;
37069;SDS011;22984;48.862;9.320;2022-11-02T04:06:03;6.85;;;1.75;;
37069;SDS011;22984;48.862;9.320;2022-11-02T04:08:33;6.45;;;1.95;;
37069;SDS011;22984;48.862;9.320;2022-11-02T04:11:00;5.75;;;1.90;;
37069;SDS011;22984;48.862;9.320;2022-11-02T04:13:45;5.00;;;1.85;;
37069;SDS011;22984;48.862;9.320;2022-11-02T04:16:30;6.38;;;1.88;;
37069;SDS011;22984;48.862;9.320;2022-11-02T04:18:56;10.70;;;1.85;;
37069;SDS011;22984;48.862;9.320;2022-11-02T04:21:40;6.00;;;2.40;;
37069;SDS011;22984;48.862;9.320;2022-11-02T04:24:26;9.63;;;2.03;;
37069;SDS011;22984;48.862;9.320;2022-11-02T04:27:11;7.53;;;2.28;;
37069;SDS011;22984;48.862;9.320;2022-11-02T04:29:37;9.10;;;1.92;;
37069;SDS011;22984;48.862;9.320;2022-11-02T04:32:03;6.50;;;2.15;;
37069;SDS011;22984;48.862;9.320;2022-11-02T04:34:29;10.55;;;2.47;;
37069;SDS011;22984;48.862;9.320;2022-11-02T04:36:55;10.17;;;2.13;;
37069;SDS011;22984;48.862;9.320;2022-11-02T04:39:21;2.70;;;1.60;;
37069;SDS011;22984;48.862;9.320;2022-11-02T04:41:47;6.60;;;2.13;;
37069;SDS011;22984;48.862;9.320;2022-11-02T04:44:13;5.43;;;1.63;;
37069;SDS011;22984;48.862;9.320;2022-11-02T04:46:40;12.45;;;1.67;;
37069;SDS011;22984;48.862;9.320;2022-11-02T04:49:07;6.25;;;1.60;;
37069;SDS011;22984;48.862;9.320;2022-11-02T04:51:33;4.50;;;1.77;;
37069;SDS011;22984;48.862;9.320;2022-11-02T04:53:59;5.70;;;1.30;;
37069;SDS011;22984;48.862;9.320;2022-11-02T04:56:25;5.50;;;1.63;;
37069;SDS011;22984;48.862;9.320;2022-11-02T04:58:53;6.90;;;2.17;;
37069;SDS011;22984;48.862;9.320;2022-11-02T05:01:19;11.50;;;1.75;;
37069;SDS011;22984;48.862;9.320;2022-11-02T05:03:46;2.92;;;1.50;;
37069;SDS011;22984;48.862;9.320;2022-11-02T05:06:13;7.00;;;1.48;;
37069;SDS011;22984;48.862;9.320;2022-11-02T05:08:39;9.50;;;2.70;;
37069;SDS011;22984;48.862;9.320;2022-11-02T05:11:05;8.07;;;1.77;;
37069;SDS011;22984;48.862;9.320;2022-11-02T05:13:31;5.57;;;1.48;;
37069;SDS011;22984;48.862;9.320;2022-11-02T05:15:58;5.85;;;1.63;;
37069;SDS011;22984;48.862;9.320;2022-11-02T05:18:24;3.35;;;1.40;;
37069;SDS011;22984;48.862;9.320;2022-11-02T05:20:55;4.65;;;1.60;;
37069;SDS011;22984;48.862;9.320;2022-11-02T05:23:21;7.93;;;2.30;;
37069;SDS011;22984;48.862;9.320;2022-11-02T05:25:58;4.80;;;1.70;;
37069;SDS011;22984;48.862;9.320;2022-11-02T05:28:25;5.15;;;1.65;;
37069;SDS011;22984;48.862;9.320;2022-11-02T05:30:51;4.88;;;1.40;;
37069;SDS011;22984;48.862;9.320;2022-11-02T05:33:18;6.93;;;1.52;;
37069;SDS011;22984;48.862;9.320;2022-11-02T05:35:44;6.20;;;1.73;;
37069;SDS011;22984;48.862;9.320;2022-11-02T05:38:11;5.07;;;2.10;;
37069;SDS011;22984;48.862;9.320;2022-11-02T05:40:37;7.00;;;1.92;;
37069;SDS011;22984;48.862;9.320;2022-11-02T05:43:04;6.68;;;2.10;;
37069;SDS011;22984;48.862;9.320;2022-11-02T05:45:30;8.85;;;1.38;;
37069;SDS011;22984;48.862;9.320;2022-11-02T05:47:58;8.07;;;1.83;;
37069;SDS011;22984;48.862;9.320;2022-11-02T05:50:25;4.85;;;1.60;;
37069;SDS011;22984;48.862;9.320;2022-11-02T05:52:51;3.58;;;1.20;;
37069;SDS011;22984;48.862;9.320;2022-11-02T05:55:17;9.33;;;1.93;;
37069;SDS011;22984;48.862;9.320;2022-11-02T05:57:48;4.60;;;1.48;;
37069;SDS011;22984;48.862;9.320;2022-11-02T06:00:15;7.50;;;1.67;;
37069;SDS011;22984;48.862;9.320;2022-11-02T06:02:41;8.80;;;1.80;;
37069;SDS011;22984;48.862;9.320;2022-11-02T06:05:07;6.30;;;1.37;;
37069;SDS011;22984;48.862;9.320;2022-11-02T06:07:33;7.22;;;2.20;;
37069;SDS011;22984;48.862;9.320;2022-11-02T06:09:59;7.78;;;1.52;;
37069;SDS011;22984;48.862;9.320;2022-11-02T06:12:26;8.38;;;1.73;;
37069;SDS011;22984;48.862;9.320;2022-11-02T06:14:52;8.63;;;2.20;;
37069;SDS011;22984;48.862;9.320;2022-11-02T06:17:18;6.20;;;1.85;;
37069;SDS011;22984;48.862;9.320;2022-11-02T06:19:44;8.25;;;1.98;;
37069;SDS011;22984;48.862;9.320;2022-11-02T06:22:10;8.73;;;2.67;;
37069;SDS011;22984;48.862;9.320;2022-11-02T06:24:36;11.13;;;2.22;;
37069;SDS011;22984;48.862;9.320;2022-11-02T06:27:02;6.55;;;1.90;;
37069;SDS011;22984;48.862;9.320;2022-11-02T06:29:28;7.67;;;2.63;;
37069;SDS011;22984;48.862;9.320;2022-11-02T06:31:54;9.95;;;2.28;;
37069;SDS011;22984;48.862;9.320;2022-11-02T06:34:20;7.47;;;2.78;;
37069;SDS011;22984;48.862;9.320;2022-11-02T06:36:46;6.90;;;2.17;;
37069;SDS011;22984;48.862;9.320;2022-11-02T06:39:12;7.47;;;2.40;;
37069;SDS011;22984;48.862;9.320;2022-11-02T06:41:38;9.18;;;2.40;;
37069;SDS011;22984;48.862;9.320;2022-11-02T06:44:04;7.65;;;2.53;;
37069;SDS011;22984;48.862;9.320;2022-11-02T06:46:30;5.07;;;1.80;;
37069;SDS011;22984;48.862;9.320;2022-11-02T06:48:56;7.65;;;1.80;;
37069;SDS011;22984;48.862;9.320;2022-11-02T06:51:23;12.13;;;2.50;;
37069;SDS011;22984;48.862;9.320;2022-11-02T06:53:49;6.28;;;2.40;;
37069;SDS011;22984;48.862;9.320;2022-11-02T06:56:15;9.73;;;2.77;;
37069;SDS011;22984;48.862;9.320;2022-11-02T06:58:41;7.93;;;1.90;;
37069;SDS011;22984;48.862;9.320;2022-11-02T07:01:07;6.88;;;1.85;;
37069;SDS011;22984;48.862;9.320;2022-11-02T07:03:33;4.50;;;1.50;;
37069;SDS011;22984;48.862;9.320;2022-11-02T07:05:59;7.13;;;1.83;;
37069;SDS011;22984;48.862;9.320;2022-11-02T07:08:26;8.43;;;1.90;;
37069;SDS011;22984;48.862;9.320;2022-11-02T07:10:52;11.13;;;2.70;;
37069;SDS011;22984;48.862;9.320;2022-11-02T07:13:19;11.23;;;2.80;;
37069;SDS011;22984;48.862;9.320;2022-11-02T07:15:45;12.73;;;2.88;;
37069;SDS011;22984;48.862;9.320;2022-11-02T07:18:11;8.93;;;2.38;;
37069;SDS011;22984;48.862;9.320;2022-11-02T07:20:38;9.95;;;2.88;;
37069;SDS011;22984;48.862;9.320;2022-11-02T07:23:04;11.20;;;3.10;;
37069;SDS011;22984;48.862;9.320;2022-11-02T07:25:30;6.47;;;2.38;;
37069;SDS011;22984;48.862;9.320;2022-11-02T07:27:57;11.30;;;3.40;;
37069;SDS011;22984;48.862;9.320;2022-11-02T07:30:24;9.65;;;3.10;;
37069;SDS011;22984;48.862;9.320;2022-11-02T07:32:50;8.23;;;3.08;;
37069;SDS011;22984;48.862;9.320;2022-11-02T07:35:16;10.50;;;3.90;;
37069;SDS011;22984;48.862;9.320;2022-11-02T07:37:43;7.85;;;3.05;;
37069;SDS011;22984;48.862;9.320;2022-11-02T07:40:09;10.43;;;3.38;;
37069;SDS011;22984;48.862;9.320;2022-11-02T07:42:41;9.25;;;4.03;;
37069;SDS011;22984;48.862;9.320;2022-11-02T07:45:08;9.48;;;3.65;;
37069;SDS011;22984;48.862;9.320;2022-11-02T07:47:40;8.63;;;2.92;;
37069;SDS011;22984;48.862;9.320;2022-11-02T07:50:06;10.85;;;3.42;;
37069;SDS011;22984;48.862;9.320;2022-11-02T07:52:32;8.88;;;3.00;;
37069;SDS011;22984;48.862;9.320;2022-11-02T07:54:58;11.82;;;3.47;;
37069;SDS011;22984;48.862;9.320;2022-11-02T07:57:24;12.63;;;2.70;;
37069;SDS011;22984;48.862;9.320;2022-11-02T07:59:50;6.32;;;2.75;;
37069;SDS011;22984;48.862;9.320;2022-11-02T08:02:16;10.68;;;3.00;;
37069;SDS011;22984;48.862;9.320;2022-11-02T08:04:42;9.23;;;2.75;;
37069;SDS011;22984;48.862;9.320;2022-11-02T08:07:08;14.68;;;3.22;;
37069;SDS011;22984;48.862;9.320;2022-11-02T08:09:34;8.03;;;2.30;;
37069;SDS011;22984;48.862;9.320;2022-11-02T08:12:00;10.05;;;2.70;;
37069;SDS011;22984;48.862;9.320;2022-11-02T08:14:26;9.13;;;2.30;;
37069;SDS011;22984;48.862;9.320;2022-11-02T08:16:52;9.90;;;2.40;;
37069;SDS011;22984;48.862;9.320;2022-11-02T08:19:18;10.70;;;2.70;;
37069;SDS011;22984;48.862;9.320;2022-11-02T08:21:44;8.83;;;2.07;;
37069;SDS011;22984;48.862;9.320;2022-11-02T08:24:10;8.65;;;2.35;;
37069;SDS011;22984;48.862;9.320;2022-11-02T08:26:36;7.43;;;1.77;;
37069;SDS011;22984;48.862;9.320;2022-11-02T08:29:02;10.20;;;2.08;;
37069;SDS011;22984;48.862;9.320;2022-11-02T08:31:29;10.18;;;2.08;;
37069;SDS011;22984;48.862;9.320;2022-11-02T08:33:55;9.90;;;2.83;;
37069;SDS011;22984;48.862;9.320;2022-11-02T08:36:22;5.95;;;1.77;;
37069;SDS011;22984;48.862;9.320;2022-11-02T08:38:48;7.93;;;2.67;;
37069;SDS011;22984;48.862;9.320;2022-11-02T08:41:14;14.45;;;2.45;;
37069;SDS011;22984;48.862;9.320;2022-11-02T08:43:40;12.60;;;1.70;;
37069;SDS011;22984;48.862;9.320;2022-11-02T08:46:06;5.80;;;1.70;;
37069;SDS011;22984;48.862;9.320;2022-11-02T08:48:32;5.68;;;2.05;;
37069;SDS011;22984;48.862;9.320;2022-11-02T08:50:58;7.05;;;1.77;;
37069;SDS011;22984;48.862;9.320;2022-11-02T08:53:24;5.30;;;1.60;;
37069;SDS011;22984;48.862;9.320;2022-11-02T08:55:50;6.10;;;1.70;;
37069;SDS011;22984;48.862;9.320;2022-11-02T08:58:16;9.50;;;2.97;;
37069;SDS011;22984;48.862;9.320;2022-11-02T09:00:43;11.55;;;3.25;;
37069;SDS011;22984;48.862;9.320;2022-11-02T09:03:10;10.50;;;2.40;;
37069;SDS011;22984;48.862;9.320;2022-11-02T09:05:40;7.28;;;1.67;;
37069;SDS011;22984;48.862;9.320;2022-11-02T09:08:11;9.00;;;2.22;;
37069;SDS011;22984;48.862;9.320;2022-11-02T09:10:37;8.27;;;2.50;;
37069;SDS011;22984;48.862;9.320;2022-11-02T09:13:04;8.23;;;2.03;;
37069;SDS011;22984;48.862;9.320;2022-11-02T09:15:31;11.38;;;2.63;;
37069;SDS011;22984;48.862;9.320;2022-11-02T09:17:58;6.45;;;2.35;;
37069;SDS011;22984;48.862;9.320;2022-11-02T09:20:24;8.82;;;2.22;;
37069;SDS011;22984;48.862;9.320;2022-11-02T09:22:50;9.27;;;2.28;;
37069;SDS011;22984;48.862;9.320;2022-11-02T09:25:16;10.43;;;2.20;;
37069;SDS011;22984;48.862;9.320;2022-11-02T09:27:42;10.85;;;2.55;;
37069;SDS011;22984;48.862;9.320;2022-11-02T09:30:09;11.57;;;2.45;;
37069;SDS011;22984;48.862;9.320;2022-11-02T09:32:35;12.70;;;3.17;;
37069;SDS011;22984;48.862;9.320;2022-11-02T09:35:03;13.73;;;3.20;;
37069;SDS011;22984;48.862;9.320;2022-11-02T09:37:31;10.75;;;2.58;;
37069;SDS011;22984;48.862;9.320;2022-11-02T09:39:57;14.52;;;2.38;;
37069;SDS011;22984;48.862;9.320;2022-11-02T09:45:19;14.77;;;2.67;;
37069;SDS011;22984;48.862;9.320;2022-11-02T09:50:21;11.98;;;2.33;;
37069;SDS011;22984;48.862;9.320;2022-11-02T09:52:55;9.23;;;2.23;;
37069;SDS011;22984;48.862;9.320;2022-11-02T09:55:24;9.27;;;2.00;;
37069;SDS011;22984;48.862;9.320;2022-11-02T09:57:54;11.03;;;2.67;;
37069;SDS011;22984;48.862;9.320;2022-11-02T10:00:22;6.95;;;1.77;;
37069;SDS011;22984;48.862;9.320;2022-11-02T10:02:54;7.55;;;2.00;;
37069;SDS011;22984;48.862;9.320;2022-11-02T10:15:58;5.03;;;1.58;;
37069;SDS011;22984;48.862;9.320;2022-11-02T10:18:25;5.93;;;1.98;;
37069;SDS011;22984;48.862;9.320;2022-11-02T10:21:04;8.13;;;1.60;;
37069;SDS011;22984;48.862;9.320;2022-11-02T10:25:58;6.00;;;1.60;;
37069;SDS011;22984;48.862;9.320;2022-11-02T10:28:26;10.40;;;2.00;;
37069;SDS011;22984;48.862;9.320;2022-11-02T10:30:53;9.40;;;1.60;;
37069;SDS011;22984;48.862;9.320;2022-11-02T10:33:26;7.85;;;1.73;;
37069;SDS011;22984;48.862;9.320;2022-11-02T10:44:36;8.18;;;1.60;;
37069;SDS011;22984;48.862;9.320;2022-11-02T10:51:39;8.27;;;1.83;;
37069;SDS011;22984;48.862;9.320;2022-11-02T10:54:12;7.50;;;1.80;;
37069;SDS011;22984;48.862;9.320;2022-11-02T10:56:40;9.27;;;1.77;;
37069;SDS011;22984;48.862;9.320;2022-11-02T11:01:35;11.10;;;2.30;;
37069;SDS011;22984;48.862;9.320;2022-11-02T11:04:05;8.43;;;1.75;;
37069;SDS011;22984;48.862;9.320;2022-11-02T11:06:36;10.00;;;1.70;;
37069;SDS011;22984;48.862;9.320;2022-11-02T11:09:06;10.40;;;2.10;;
37069;SDS011;22984;48.862;9.320;2022-11-02T11:11:33;9.45;;;1.83;;
37069;SDS011;22984;48.862;9.320;2022-11-02T11:14:04;8.20;;;1.60;;
37069;SDS011;22984;48.862;9.320;2022-11-02T11:16:32;6.80;;;1.60;;
37069;SDS011;22984;48.862;9.320;2022-11-02T11:19:00;10.05;;;1.80;;
37069;SDS011;22984;48.862;9.320;2022-11-02T11:21:47;11.90;;;2.30;;
37069;SDS011;22984;48.862;9.320;2022-11-02T11:24:27;8.48;;;1.92;;
37069;SDS011;22984;48.862;9.320;2022-11-02T11:27:00;8.50;;;1.83;;
37069;SDS011;22984;48.862;9.320;2022-11-02T11:29:28;7.83;;;1.73;;
37069;SDS011;22984;48.862;9.320;2022-11-02T11:31:55;12.50;;;1.80;;
37069;SDS011;22984;48.862;9.320;2022-11-02T11:34:22;13.15;;;2.40;;
37069;SDS011;22984;48.862;9.320;2022-11-02T11:36:49;6.65;;;1.88;;
37069;SDS011;22984;48.862;9.320;2022-11-02T11:39:36;7.78;;;2.08;;
37069;SDS011;22984;48.862;9.320;2022-11-02T11:42:01;5.30;;;1.35;;
37069;SDS011;22984;48.862;9.320;2022-11-02T11:44:29;6.78;;;1.92;;
37069;SDS011;22984;48.862;9.320;2022-11-02T11:46:56;5.85;;;1.83;;
37069;SDS011;22984;48.862;9.320;2022-11-02T11:49:24;5.93;;;1.80;;
37069;SDS011;22984;48.862;9.320;2022-11-02T11:51:52;5.03;;;1.58;;
37069;SDS011;22984;48.862;9.320;2022-11-02T11:56:49;6.75;;;1.60;;
37069;SDS011;22984;48.862;9.320;2022-11-02T12:01:48;4.60;;;1.80;;
37069;SDS011;22984;48.862;9.320;2022-11-02T12:04:25;4.25;;;1.63;;
37069;SDS011;22984;48.862;9.320;2022-11-02T12:06:53;4.65;;;2.15;;
37069;SDS011;22984;48.862;9.320;2022-11-02T12:09:25;4.85;;;1.50;;
37069;SDS011;22984;48.862;9.320;2022-11-02T12:14:24;7.55;;;2.03;;
37069;SDS011;22984;48.862;9.320;2022-11-02T12:16:59;7.10;;;2.15;;
37069;SDS011;22984;48.862;9.320;2022-11-02T12:32:03;9.68;;;1.73;;
37069;SDS011;22984;48.862;9.320;2022-11-02T12:37:16;8.35;;;1.73;;
37069;SDS011;22984;48.862;9.320;2022-11-02T12:42:24;8.77;;;2.30;;
37069;SDS011;22984;48.862;9.320;2022-11-02T12:52:39;7.85;;;2.20;;
37069;SDS011;22984;48.862;9.320;2022-11-02T12:55:13;6.78;;;1.92;;
37069;SDS011;22984;48.862;9.320;2022-11-02T12:57:41;5.70;;;1.63;;
37069;SDS011;22984;48.862;9.320;2022-11-02T13:00:14;6.30;;;1.87;;
37069;SDS011;22984;48.862;9.320;2022-11-02T13:05:28;4.97;;;1.85;;
37069;SDS011;22984;48.862;9.320;2022-11-02T13:10:22;5.10;;;1.52;;
37069;SDS011;22984;48.862;9.320;2022-11-02T13:12:50;5.80;;;1.65;;
37069;SDS011;22984;48.862;9.320;2022-11-02T13:15:19;3.83;;;1.30;;
37069;SDS011;22984;48.862;9.320;2022-11-02T13:23:10;5.95;;;1.77;;
37069;SDS011;22984;48.862;9.320;2022-11-02T13:25:43;9.38;;;2.08;;
37069;SDS011;22984;48.862;9.320;2022-11-02T13:30:46;6.03;;;1.67;;
37069;SDS011;22984;48.862;9.320;2022-11-02T13:33:14;4.95;;;1.60;;
37069;SDS011;22984;48.862;9.320;2022-11-02T13:35:42;8.50;;;1.88;;
37069;SDS011;22984;48.862;9.320;2022-11-02T13:43:31;5.18;;;1.80;;
37069;SDS011;22984;48.862;9.320;2022-11-02T13:51:34;5.70;;;1.75;;
37069;SDS011;22984;48.862;9.320;2022-11-02T13:54:02;5.35;;;1.92;;
37069;SDS011;22984;48.862;9.320;2022-11-02T13:56:29;7.05;;;1.60;;
37069;SDS011;22984;48.862;9.320;2022-11-02T13:58:57;5.63;;;1.58;;
37069;SDS011;22984;48.862;9.320;2022-11-02T14:01:24;4.40;;;1.53;;
37069;SDS011;22984;48.862;9.320;2022-11-02T14:03:51;4.18;;;1.70;;
37069;SDS011;22984;48.862;9.320;2022-11-02T14:06:19;8.68;;;1.77;;
37069;SDS011;22984;48.862;9.320;2022-11-02T14:09:06;5.93;;;1.73;;
37069;SDS011;22984;48.862;9.320;2022-11-02T14:27:03;5.28;;;1.60;;
37069;SDS011;22984;48.862;9.320;2022-11-02T14:37:23;6.05;;;1.83;;
37069;SDS011;22984;48.862;9.320;2022-11-02T14:40:04;9.05;;;1.70;;
37069;SDS011;22984;48.862;9.320;2022-11-02T14:48:10;5.72;;;1.63;;
37069;SDS011;22984;48.862;9.320;2022-11-02T14:50:38;13.05;;;2.60;;
37069;SDS011;22984;48.862;9.320;2022-11-02T14:53:05;7.78;;;1.88;;
37069;SDS011;22984;48.862;9.320;2022-11-02T14:55:36;4.60;;;1.77;;
37069;SDS011;22984;48.862;9.320;2022-11-02T14:58:04;5.28;;;1.80;;
37069;SDS011;22984;48.862;9.320;2022-11-02T15:00:32;6.47;;;1.65;;
37069;SDS011;22984;48.862;9.320;2022-11-02T15:03:01;8.02;;;1.75;;
37069;SDS011;22984;48.862;9.320;2022-11-02T15:07:55;4.55;;;1.60;;
37069;SDS011;22984;48.862;9.320;2022-11-02T15:15:40;12.27;;;1.90;;
37069;SDS011;22984;48.862;9.320;2022-11-02T15:26:17;8.52;;;2.25;;
37069;SDS011;22984;48.862;9.320;2022-11-02T15:28:44;9.48;;;1.83;;
37069;SDS011;22984;48.862;9.320;2022-11-02T15:31:14;8.70;;;1.85;;
37069;SDS011;22984;48.862;9.320;2022-11-02T15:33:42;8.17;;;2.20;;
37069;SDS011;22984;48.862;9.320;2022-11-02T15:36:13;6.50;;;2.50;;
37069;SDS011;22984;48.862;9.320;2022-11-02T15:38:40;8.27;;;2.30;;
37069;SDS011;22984;48.862;9.320;2022-11-02T15:46:36;17.02;;;7.57;;
37069;SDS011;22984;48.862;9.320;2022-11-02T15:49:08;15.88;;;5.28;;
37069;SDS011;22984;48.862;9.320;2022-11-02T15:54:28;15.60;;;3.58;;
37069;SDS011;22984;48.862;9.320;2022-11-02T15:59:43;12.60;;;3.20;;
37069;SDS011;22984;48.862;9.320;2022-11-02T16:02:25;10.02;;;2.80;;
37069;SDS011;22984;48.862;9.320;2022-11-02T16:17:20;9.30;;;2.70;;
37069;SDS011;22984;48.862;9.320;2022-11-02T16:19:47;11.25;;;3.35;;
37069;SDS011;22984;48.862;9.320;2022-11-02T16:22:16;13.83;;;4.07;;
37069;SDS011;22984;48.862;9.320;2022-11-02T16:24:45;12.33;;;3.83;;
37069;SDS011;22984;48.862;9.320;2022-11-02T16:27:11;13.40;;;4.25;;
37069;SDS011;22984;48.862;9.320;2022-11-02T16:29:38;14.57;;;4.17;;
37069;SDS011;22984;48.862;9.320;2022-11-02T16:32:08;15.60;;;5.07;;
37069;SDS011;22984;48.862;9.320;2022-11-02T16:34:34;16.42;;;4.15;;
37069;SDS011;22984;48.862;9.320;2022-11-02T16:37:01;14.95;;;3.60;;
37069;SDS011;22984;48.862;9.320;2022-11-02T16:39:28;14.82;;;4.13;;
37069;SDS011;22984;48.862;9.320;2022-11-02T16:41:58;20.13;;;5.95;;
37069;SDS011;22984;48.862;9.320;2022-11-02T16:44:28;16.23;;;6.10;;
37069;SDS011;22984;48.862;9.320;2022-11-02T16:46:56;23.23;;;9.05;;
37069;SDS011;22984;48.862;9.320;2022-11-02T16:49:23;14.00;;;3.60;;
37069;SDS011;22984;48.862;9.320;2022-11-02T16:51:59;13.93;;;3.22;;
37069;SDS011;22984;48.862;9.320;2022-11-02T16:56:53;18.05;;;3.40;;
37069;SDS011;22984;48.862;9.320;2022-11-02T16:59:20;11.95;;;3.33;;
37069;SDS011;22984;48.862;9.320;2022-11-02T17:01:47;11.20;;;2.85;;
37069;SDS011;22984;48.862;9.320;2022-11-02T17:04:21;8.93;;;2.33;;
37069;SDS011;22984;48.862;9.320;2022-11-02T17:06:48;12.32;;;3.38;;
37069;SDS011;22984;48.862;9.320;2022-11-02T17:11:44;13.52;;;3.40;;
37069;SDS011;22984;48.862;9.320;2022-11-02T17:14:10;12.43;;;3.47;;
37069;SDS011;22984;48.862;9.320;2022-11-02T17:16:36;13.10;;;3.60;;
37069;SDS011;22984;48.862;9.320;2022-11-02T17:22:15;16.33;;;4.10;;
37069;SDS011;22984;48.862;9.320;2022-11-02T17:24:47;14.55;;;3.65;;
37069;SDS011;22984;48.862;9.320;2022-11-02T17:27:20;10.63;;;2.90;;
37069;SDS011;22984;48.862;9.320;2022-11-02T17:29:47;16.93;;;4.80;;
37069;SDS011;22984;48.862;9.320;2022-11-02T17:32:14;17.10;;;5.25;;
37069;SDS011;22984;48.862;9.320;2022-11-02T17:34:50;14.88;;;4.30;;
37069;SDS011;22984;48.862;9.320;2022-11-02T17:37:23;14.52;;;4.28;;
37069;SDS011;22984;48.862;9.320;2022-11-02T17:39:50;19.05;;;4.57;;
37069;SDS011;22984;48.862;9.320;2022-11-02T17:42:16;14.45;;;4.28;;
37069;SDS011;22984;48.862;9.320;2022-11-02T17:45:47;23.65;;;4.75;;
37069;SDS011;22984;48.862;9.320;2022-11-02T17:47:48;16.15;;;3.85;;
37069;SDS011;22984;48.862;9.320;2022-11-02T17:50:14;19.13;;;3.65;;
37069;SDS011;22984;48.862;9.320;2022-11-02T17:52:40;15.88;;;3.55;;
37069;SDS011;22984;48.862;9.320;2022-11-02T17:55:06;16.85;;;3.47;;
37069;SDS011;22984;48.862;9.320;2022-11-02T17:57:35;15.03;;;3.80;;
37069;SDS011;22984;48.862;9.320;2022-11-02T18:00:01;11.23;;;3.30;;
37069;SDS011;22984;48.862;9.320;2022-11-02T18:02:27;13.73;;;4.30;;
37069;SDS011;22984;48.862;9.320;2022-11-02T18:04:53;12.38;;;3.65;;
37069;SDS011;22984;48.862;9.320;2022-11-02T18:07:19;14.88;;;3.75;;
37069;SDS011;22984;48.862;9.320;2022-11-02T18:09:45;16.30;;;4.03;;